sensor_id;sensor_type;location;lat;lon;timestamp;temperature;humidity
8591;DHT22;4333;48.322;14.340;2023-04-03T00:00:17;4.60;51.70
8591;DHT22;4333;48.322;14.340;2023-04-03T00:02:42;4.60;50.60
8591;DHT22;4333;48.322;14.340;2023-04-03T00:05:08;4.60;49.30
8591;DHT22;4333;48.322;14.340;2023-04-03T00:07:34;4.60;47.80
8591;DHT22;4333;48.322;14.340;2023-04-03T00:09:59;4.70;48.60
8591;DHT22;4333;48.322;14.340;2023-04-03T00:12:25;4.60;49.00
8591;DHT22;4333;48.322;14.340;2023-04-03T00:14:51;4.60;49.40
8591;DHT22;4333;48.322;14.340;2023-04-03T00:17:17;4.60;48.30
8591;DHT22;4333;48.322;14.340;2023-04-03T00:19:42;4.60;49.30
8591;DHT22;4333;48.322;14.340;2023-04-03T00:22:10;4.50;48.00
8591;DHT22;4333;48.322;14.340;2023-04-03T00:24:38;4.60;47.40
8591;DHT22;4333;48.322;14.340;2023-04-03T00:27:04;4.60;47.90
8591;DHT22;4333;48.322;14.340;2023-04-03T00:29:32;4.50;45.60
8591;DHT22;4333;48.322;14.340;2023-04-03T00:32:00;4.60;45.50
8591;DHT22;4333;48.322;14.340;2023-04-03T00:34:26;4.50;45.60
8591;DHT22;4333;48.322;14.340;2023-04-03T00:36:52;4.60;45.40
8591;DHT22;4333;48.322;14.340;2023-04-03T00:39:19;4.60;44.20
8591;DHT22;4333;48.322;14.340;2023-04-03T00:41:44;4.60;45.60
8591;DHT22;4333;48.322;14.340;2023-04-03T00:46:58;4.60;50.30
8591;DHT22;4333;48.322;14.340;2023-04-03T00:49:25;4.60;48.60
8591;DHT22;4333;48.322;14.340;2023-04-03T00:51:54;4.50;47.80
8591;DHT22;4333;48.322;14.340;2023-04-03T00:54:20;4.50;46.90
8591;DHT22;4333;48.322;14.340;2023-04-03T00:56:51;4.50;47.40
8591;DHT22;4333;48.322;14.340;2023-04-03T00:59:27;4.60;47.60
8591;DHT22;4333;48.322;14.340;2023-04-03T01:01:56;4.50;47.40
8591;DHT22;4333;48.322;14.340;2023-04-03T01:04:35;4.50;47.40
8591;DHT22;4333;48.322;14.340;2023-04-03T01:07:11;4.50;48.60
8591;DHT22;4333;48.322;14.340;2023-04-03T01:09:40;4.50;47.00
8591;DHT22;4333;48.322;14.340;2023-04-03T01:14:54;4.50;49.70
8591;DHT22;4333;48.322;14.340;2023-04-03T01:25:46;4.50;49.80
8591;DHT22;4333;48.322;14.340;2023-04-03T01:28:18;4.50;48.50
8591;DHT22;4333;48.322;14.340;2023-04-03T01:33:49;4.40;48.80
8591;DHT22;4333;48.322;14.340;2023-04-03T01:36:21;4.40;48.30
8591;DHT22;4333;48.322;14.340;2023-04-03T01:38:50;4.50;47.60
8591;DHT22;4333;48.322;14.340;2023-04-03T01:41:18;4.40;48.50
8591;DHT22;4333;48.322;14.340;2023-04-03T01:43:44;4.40;46.30
8591;DHT22;4333;48.322;14.340;2023-04-03T01:46:10;4.40;46.00
8591;DHT22;4333;48.322;14.340;2023-04-03T01:48:35;4.40;46.20
8591;DHT22;4333;48.322;14.340;2023-04-03T01:51:01;4.40;46.00
8591;DHT22;4333;48.322;14.340;2023-04-03T01:53:27;4.40;48.20
8591;DHT22;4333;48.322;14.340;2023-04-03T01:55:52;4.40;49.50
8591;DHT22;4333;48.322;14.340;2023-04-03T01:58:21;4.30;52.80
8591;DHT22;4333;48.322;14.340;2023-04-03T02:00:47;4.30;50.20
8591;DHT22;4333;48.322;14.340;2023-04-03T02:03:13;4.30;49.80
8591;DHT22;4333;48.322;14.340;2023-04-03T02:05:44;4.30;49.20
8591;DHT22;4333;48.322;14.340;2023-04-03T02:08:18;4.30;49.70
8591;DHT22;4333;48.322;14.340;2023-04-03T02:10:47;4.30;49.30
8591;DHT22;4333;48.322;14.340;2023-04-03T02:13:16;4.30;48.70
8591;DHT22;4333;48.322;14.340;2023-04-03T02:15:42;4.30;49.10
8591;DHT22;4333;48.322;14.340;2023-04-03T02:18:08;4.30;47.30
8591;DHT22;4333;48.322;14.340;2023-04-03T02:20:36;4.30;48.40
8591;DHT22;4333;48.322;14.340;2023-04-03T02:23:02;4.30;49.30
8591;DHT22;4333;48.322;14.340;2023-04-03T02:25:31;4.30;48.40
8591;DHT22;4333;48.322;14.340;2023-04-03T02:27:57;4.30;48.40
8591;DHT22;4333;48.322;14.340;2023-04-03T02:30:22;4.30;49.20
8591;DHT22;4333;48.322;14.340;2023-04-03T02:32:48;4.30;48.00
8591;DHT22;4333;48.322;14.340;2023-04-03T02:35:14;4.30;48.00
8591;DHT22;4333;48.322;14.340;2023-04-03T02:37:40;4.30;48.40
8591;DHT22;4333;48.322;14.340;2023-04-03T02:40:06;4.30;49.80
8591;DHT22;4333;48.322;14.340;2023-04-03T02:42:35;4.30;50.00
8591;DHT22;4333;48.322;14.340;2023-04-03T02:45:03;4.30;49.80
8591;DHT22;4333;48.322;14.340;2023-04-03T02:47:31;4.30;50.80
8591;DHT22;4333;48.322;14.340;2023-04-03T02:49:59;4.30;51.80
8591;DHT22;4333;48.322;14.340;2023-04-03T02:52:27;4.20;52.60
8591;DHT22;4333;48.322;14.340;2023-04-03T02:54:55;4.20;55.40
8591;DHT22;4333;48.322;14.340;2023-04-03T02:57:24;4.20;54.10
8591;DHT22;4333;48.322;14.340;2023-04-03T02:59:54;4.20;54.00
8591;DHT22;4333;48.322;14.340;2023-04-03T03:02:20;4.20;52.00
8591;DHT22;4333;48.322;14.340;2023-04-03T03:04:46;4.20;51.10
8591;DHT22;4333;48.322;14.340;2023-04-03T03:07:16;4.20;49.50
8591;DHT22;4333;48.322;14.340;2023-04-03T03:09:42;4.20;49.00
8591;DHT22;4333;48.322;14.340;2023-04-03T03:12:10;4.30;47.60
8591;DHT22;4333;48.322;14.340;2023-04-03T03:14:36;4.20;47.60
8591;DHT22;4333;48.322;14.340;2023-04-03T03:17:03;4.20;44.70
8591;DHT22;4333;48.322;14.340;2023-04-03T03:19:31;4.20;44.40
8591;DHT22;4333;48.322;14.340;2023-04-03T03:22:02;4.20;45.10
8591;DHT22;4333;48.322;14.340;2023-04-03T03:24:28;4.20;44.50
8591;DHT22;4333;48.322;14.340;2023-04-03T03:26:56;4.20;44.70
8591;DHT22;4333;48.322;14.340;2023-04-03T03:29:21;4.20;44.60
8591;DHT22;4333;48.322;14.340;2023-04-03T03:31:47;4.20;44.50
8591;DHT22;4333;48.322;14.340;2023-04-03T03:34:18;4.20;44.30
8591;DHT22;4333;48.322;14.340;2023-04-03T03:36:46;4.20;44.70
8591;DHT22;4333;48.322;14.340;2023-04-03T03:39:11;4.20;45.30
8591;DHT22;4333;48.322;14.340;2023-04-03T03:41:37;4.20;46.50
8591;DHT22;4333;48.322;14.340;2023-04-03T03:44:03;4.10;46.50
8591;DHT22;4333;48.322;14.340;2023-04-03T03:46:29;4.20;46.50
8591;DHT22;4333;48.322;14.340;2023-04-03T03:48:55;4.20;47.60
8591;DHT22;4333;48.322;14.340;2023-04-03T03:51:20;4.20;48.10
8591;DHT22;4333;48.322;14.340;2023-04-03T03:53:51;4.20;47.70
8591;DHT22;4333;48.322;14.340;2023-04-03T03:56:20;4.20;49.70
8591;DHT22;4333;48.322;14.340;2023-04-03T03:58:45;4.10;50.80
8591;DHT22;4333;48.322;14.340;2023-04-03T04:01:11;4.10;52.40
8591;DHT22;4333;48.322;14.340;2023-04-03T04:03:37;4.00;52.10
8591;DHT22;4333;48.322;14.340;2023-04-03T04:06:03;4.00;54.10
8591;DHT22;4333;48.322;14.340;2023-04-03T04:08:32;4.10;53.10
8591;DHT22;4333;48.322;14.340;2023-04-03T04:11:06;4.10;52.00
8591;DHT22;4333;48.322;14.340;2023-04-03T04:13:33;4.00;53.40
8591;DHT22;4333;48.322;14.340;2023-04-03T04:15:59;4.00;54.50
8591;DHT22;4333;48.322;14.340;2023-04-03T04:18:24;4.00;55.10
8591;DHT22;4333;48.322;14.340;2023-04-03T04:20:52;4.00;55.20
8591;DHT22;4333;48.322;14.340;2023-04-03T04:23:19;4.00;55.70
8591;DHT22;4333;48.322;14.340;2023-04-03T04:25:48;4.00;56.00
8591;DHT22;4333;48.322;14.340;2023-04-03T04:28:15;4.00;55.40
8591;DHT22;4333;48.322;14.340;2023-04-03T04:30:41;4.00;54.00
8591;DHT22;4333;48.322;14.340;2023-04-03T04:33:09;4.00;54.00
8591;DHT22;4333;48.322;14.340;2023-04-03T04:35:42;4.00;51.50
8591;DHT22;4333;48.322;14.340;2023-04-03T04:38:11;4.00;53.90
8591;DHT22;4333;48.322;14.340;2023-04-03T04:40:37;4.00;53.70
8591;DHT22;4333;48.322;14.340;2023-04-03T04:43:05;4.00;55.20
8591;DHT22;4333;48.322;14.340;2023-04-03T04:45:33;4.00;57.20
8591;DHT22;4333;48.322;14.340;2023-04-03T04:48:01;4.10;55.40
8591;DHT22;4333;48.322;14.340;2023-04-03T04:50:27;4.10;53.70
8591;DHT22;4333;48.322;14.340;2023-04-03T04:52:53;4.00;55.00
8591;DHT22;4333;48.322;14.340;2023-04-03T04:55:19;4.00;54.70
8591;DHT22;4333;48.322;14.340;2023-04-03T04:57:46;4.00;56.20
8591;DHT22;4333;48.322;14.340;2023-04-03T05:00:12;4.00;57.70
8591;DHT22;4333;48.322;14.340;2023-04-03T05:02:38;4.00;57.10
8591;DHT22;4333;48.322;14.340;2023-04-03T05:05:04;4.00;57.50
8591;DHT22;4333;48.322;14.340;2023-04-03T05:07:33;4.00;56.20
8591;DHT22;4333;48.322;14.340;2023-04-03T05:10:01;4.00;58.00
8591;DHT22;4333;48.322;14.340;2023-04-03T05:12:28;4.00;59.00
8591;DHT22;4333;48.322;14.340;2023-04-03T05:14:53;4.00;59.30
8591;DHT22;4333;48.322;14.340;2023-04-03T05:17:19;4.00;60.70
8591;DHT22;4333;48.322;14.340;2023-04-03T05:19:45;4.00;61.70
8591;DHT22;4333;48.322;14.340;2023-04-03T05:22:11;4.00;60.20
8591;DHT22;4333;48.322;14.340;2023-04-03T05:24:37;4.00;58.40
8591;DHT22;4333;48.322;14.340;2023-04-03T05:27:03;4.00;57.00
8591;DHT22;4333;48.322;14.340;2023-04-03T05:29:29;4.10;56.60
8591;DHT22;4333;48.322;14.340;2023-04-03T05:31:57;4.10;56.50
8591;DHT22;4333;48.322;14.340;2023-04-03T05:34:23;4.10;55.50
8591;DHT22;4333;48.322;14.340;2023-04-03T05:36:50;4.10;52.10
8591;DHT22;4333;48.322;14.340;2023-04-03T05:39:16;4.00;53.70
8591;DHT22;4333;48.322;14.340;2023-04-03T05:41:42;4.10;53.60
8591;DHT22;4333;48.322;14.340;2023-04-03T05:44:08;4.10;53.90
8591;DHT22;4333;48.322;14.340;2023-04-03T05:46:36;4.20;54.80
8591;DHT22;4333;48.322;14.340;2023-04-03T05:49:02;4.20;55.20
8591;DHT22;4333;48.322;14.340;2023-04-03T05:51:33;4.20;53.80
8591;DHT22;4333;48.322;14.340;2023-04-03T05:54:09;4.20;52.50
8591;DHT22;4333;48.322;14.340;2023-04-03T05:56:38;4.20;52.30
8591;DHT22;4333;48.322;14.340;2023-04-03T05:59:04;4.30;51.70
8591;DHT22;4333;48.322;14.340;2023-04-03T06:01:29;4.20;49.20
8591;DHT22;4333;48.322;14.340;2023-04-03T06:03:55;4.30;49.20
8591;DHT22;4333;48.322;14.340;2023-04-03T06:06:21;4.30;49.50
8591;DHT22;4333;48.322;14.340;2023-04-03T06:08:47;4.30;49.10
8591;DHT22;4333;48.322;14.340;2023-04-03T06:11:13;4.30;48.60
8591;DHT22;4333;48.322;14.340;2023-04-03T06:13:39;4.30;49.50
8591;DHT22;4333;48.322;14.340;2023-04-03T06:16:05;4.30;49.10
8591;DHT22;4333;48.322;14.340;2023-04-03T06:18:33;4.20;51.20
8591;DHT22;4333;48.322;14.340;2023-04-03T06:20:59;4.20;52.70
8591;DHT22;4333;48.322;14.340;2023-04-03T06:23:26;4.30;53.80
8591;DHT22;4333;48.322;14.340;2023-04-03T06:25:51;4.30;55.20
8591;DHT22;4333;48.322;14.340;2023-04-03T06:28:18;4.30;57.00
8591;DHT22;4333;48.322;14.340;2023-04-03T06:30:44;4.20;59.30
8591;DHT22;4333;48.322;14.340;2023-04-03T06:33:10;4.20;65.20
8591;DHT22;4333;48.322;14.340;2023-04-03T06:35:38;4.00;68.40
8591;DHT22;4333;48.322;14.340;2023-04-03T06:38:04;3.90;73.90
8591;DHT22;4333;48.322;14.340;2023-04-03T06:40:35;3.70;80.40
8591;DHT22;4333;48.322;14.340;2023-04-03T06:43:03;3.40;90.30
8591;DHT22;4333;48.322;14.340;2023-04-03T06:45:29;3.30;92.60
8591;DHT22;4333;48.322;14.340;2023-04-03T06:47:55;3.30;96.70
8591;DHT22;4333;48.322;14.340;2023-04-03T06:50:21;3.20;99.50
8591;DHT22;4333;48.322;14.340;2023-04-03T06:52:49;3.20;99.90
8591;DHT22;4333;48.322;14.340;2023-04-03T06:55:17;3.20;99.90
8591;DHT22;4333;48.322;14.340;2023-04-03T06:57:42;3.20;99.90
8591;DHT22;4333;48.322;14.340;2023-04-03T07:00:09;3.30;99.90
8591;DHT22;4333;48.322;14.340;2023-04-03T07:02:35;3.40;99.90
8591;DHT22;4333;48.322;14.340;2023-04-03T07:05:01;3.60;99.90
8591;DHT22;4333;48.322;14.340;2023-04-03T07:07:27;3.70;99.90
8591;DHT22;4333;48.322;14.340;2023-04-03T07:09:55;3.90;99.90
8591;DHT22;4333;48.322;14.340;2023-04-03T07:12:21;3.90;99.90
8591;DHT22;4333;48.322;14.340;2023-04-03T07:14:47;4.00;99.90
8591;DHT22;4333;48.322;14.340;2023-04-03T07:17:12;4.10;99.90
8591;DHT22;4333;48.322;14.340;2023-04-03T07:19:38;4.00;99.90
8591;DHT22;4333;48.322;14.340;2023-04-03T07:22:04;4.00;99.90
8591;DHT22;4333;48.322;14.340;2023-04-03T07:24:29;4.00;99.90
8591;DHT22;4333;48.322;14.340;2023-04-03T07:26:55;3.80;99.90
8591;DHT22;4333;48.322;14.340;2023-04-03T07:29:21;3.60;99.90
8591;DHT22;4333;48.322;14.340;2023-04-03T07:31:47;3.40;99.90
8591;DHT22;4333;48.322;14.340;2023-04-03T07:34:13;3.30;99.90
8591;DHT22;4333;48.322;14.340;2023-04-03T07:36:38;3.20;99.90
8591;DHT22;4333;48.322;14.340;2023-04-03T07:39:07;3.10;99.90
8591;DHT22;4333;48.322;14.340;2023-04-03T07:41:33;3.20;99.90
8591;DHT22;4333;48.322;14.340;2023-04-03T07:43:59;3.20;99.90
8591;DHT22;4333;48.322;14.340;2023-04-03T07:46:28;3.30;99.90
8591;DHT22;4333;48.322;14.340;2023-04-03T07:48:56;3.30;99.90
8591;DHT22;4333;48.322;14.340;2023-04-03T07:51:21;3.30;99.90
8591;DHT22;4333;48.322;14.340;2023-04-03T07:53:50;3.40;99.90
8591;DHT22;4333;48.322;14.340;2023-04-03T07:56:18;3.40;99.90
8591;DHT22;4333;48.322;14.340;2023-04-03T07:58:44;3.40;99.90
8591;DHT22;4333;48.322;14.340;2023-04-03T08:01:14;3.40;98.30
8591;DHT22;4333;48.322;14.340;2023-04-03T08:03:41;3.50;95.20
8591;DHT22;4333;48.322;14.340;2023-04-03T08:06:08;3.50;93.20
8591;DHT22;4333;48.322;14.340;2023-04-03T08:08:38;3.50;91.90
8591;DHT22;4333;48.322;14.340;2023-04-03T08:11:04;3.60;93.60
8591;DHT22;4333;48.322;14.340;2023-04-03T08:13:32;3.60;91.40
8591;DHT22;4333;48.322;14.340;2023-04-03T08:16:06;3.60;76.70
8591;DHT22;4333;48.322;14.340;2023-04-03T08:18:31;3.60;72.50
8591;DHT22;4333;48.322;14.340;2023-04-03T08:20:57;3.60;71.70
8591;DHT22;4333;48.322;14.340;2023-04-03T08:23:23;3.50;68.50
8591;DHT22;4333;48.322;14.340;2023-04-03T08:25:49;3.70;67.80
8591;DHT22;4333;48.322;14.340;2023-04-03T08:28:14;3.80;67.80
8591;DHT22;4333;48.322;14.340;2023-04-03T08:30:42;3.90;67.60
8591;DHT22;4333;48.322;14.340;2023-04-03T08:33:08;4.00;60.60
8591;DHT22;4333;48.322;14.340;2023-04-03T08:35:39;4.20;69.20
8591;DHT22;4333;48.322;14.340;2023-04-03T08:38:07;4.40;65.90
8591;DHT22;4333;48.322;14.340;2023-04-03T08:40:33;4.40;58.90
8591;DHT22;4333;48.322;14.340;2023-04-03T08:43:34;4.60;58.20
8591;DHT22;4333;48.322;14.340;2023-04-03T08:46:08;4.80;54.00
8591;DHT22;4333;48.322;14.340;2023-04-03T08:48:40;4.90;55.10
8591;DHT22;4333;48.322;14.340;2023-04-03T08:51:14;5.10;55.30
8591;DHT22;4333;48.322;14.340;2023-04-03T08:53:44;5.10;38.90
8591;DHT22;4333;48.322;14.340;2023-04-03T08:56:11;5.30;35.70
8591;DHT22;4333;48.322;14.340;2023-04-03T09:01:30;5.60;23.90
8591;DHT22;4333;48.322;14.340;2023-04-03T09:04:02;5.70;16.30
8591;DHT22;4333;48.322;14.340;2023-04-03T09:06:32;5.80;17.60
8591;DHT22;4333;48.322;14.340;2023-04-03T09:14:38;6.50;20.00
8591;DHT22;4333;48.322;14.340;2023-04-03T09:20:19;6.50;13.80
8591;DHT22;4333;48.322;14.340;2023-04-03T09:22:47;6.70;9.10
8591;DHT22;4333;48.322;14.340;2023-04-03T09:25:20;6.80;10.50
8591;DHT22;4333;48.322;14.340;2023-04-03T09:27:47;6.80;7.70
8591;DHT22;4333;48.322;14.340;2023-04-03T09:30:16;6.60;4.70
8591;DHT22;4333;48.322;14.340;2023-04-03T09:32:45;6.80;9.80
8591;DHT22;4333;48.322;14.340;2023-04-03T09:35:31;6.70;3.50
8591;DHT22;4333;48.322;14.340;2023-04-03T09:40:47;6.60;1.00
8591;DHT22;4333;48.322;14.340;2023-04-03T09:43:29;6.60;1.00
8591;DHT22;4333;48.322;14.340;2023-04-03T09:46:05;6.80;1.00
8591;DHT22;4333;48.322;14.340;2023-04-03T09:48:51;7.00;1.00
8591;DHT22;4333;48.322;14.340;2023-04-03T09:51:16;7.20;1.00
8591;DHT22;4333;48.322;14.340;2023-04-03T09:53:45;7.30;1.00
8591;DHT22;4333;48.322;14.340;2023-04-03T09:58:47;7.30;1.00
8591;DHT22;4333;48.322;14.340;2023-04-03T10:01:31;7.40;1.00
8591;DHT22;4333;48.322;14.340;2023-04-03T10:04:14;7.40;1.00
8591;DHT22;4333;48.322;14.340;2023-04-03T10:06:44;7.30;1.00
8591;DHT22;4333;48.322;14.340;2023-04-03T10:14:58;7.50;1.00
8591;DHT22;4333;48.322;14.340;2023-04-03T10:17:41;7.30;1.00
8591;DHT22;4333;48.322;14.340;2023-04-03T10:20:16;7.30;1.00
8591;DHT22;4333;48.322;14.340;2023-04-03T10:25:35;8.30;1.00
8591;DHT22;4333;48.322;14.340;2023-04-03T10:28:16;8.80;1.00
8591;DHT22;4333;48.322;14.340;2023-04-03T10:31:05;8.50;1.00
8591;DHT22;4333;48.322;14.340;2023-04-03T10:44:35;8.10;1.00
8591;DHT22;4333;48.322;14.340;2023-04-03T10:47:13;8.30;1.00
8591;DHT22;4333;48.322;14.340;2023-04-03T10:52:43;7.80;1.00
8591;DHT22;4333;48.322;14.340;2023-04-03T10:55:43;7.70;1.00
8591;DHT22;4333;48.322;14.340;2023-04-03T10:58:29;7.80;1.00
8591;DHT22;4333;48.322;14.340;2023-04-03T11:01:06;8.30;1.00
8591;DHT22;4333;48.322;14.340;2023-04-03T11:03:36;8.50;1.00
8591;DHT22;4333;48.322;14.340;2023-04-03T11:06:09;7.80;1.00
8591;DHT22;4333;48.322;14.340;2023-04-03T11:11:20;8.90;1.00
8591;DHT22;4333;48.322;14.340;2023-04-03T11:27:33;9.30;1.00
8591;DHT22;4333;48.322;14.340;2023-04-03T11:30:07;9.10;1.00
8591;DHT22;4333;48.322;14.340;2023-04-03T11:35:51;8.70;1.00
8591;DHT22;4333;48.322;14.340;2023-04-03T11:38:23;8.70;1.00
8591;DHT22;4333;48.322;14.340;2023-04-03T11:40:53;8.60;1.00
8591;DHT22;4333;48.322;14.340;2023-04-03T11:43:21;8.30;1.00
8591;DHT22;4333;48.322;14.340;2023-04-03T11:45:55;8.00;1.00
8591;DHT22;4333;48.322;14.340;2023-04-03T11:51:02;7.90;1.00
8591;DHT22;4333;48.322;14.340;2023-04-03T11:53:50;7.90;1.00
8591;DHT22;4333;48.322;14.340;2023-04-03T12:01:52;7.60;1.00
8591;DHT22;4333;48.322;14.340;2023-04-03T12:04:26;7.60;1.00
8591;DHT22;4333;48.322;14.340;2023-04-03T12:07:19;7.60;1.00
8591;DHT22;4333;48.322;14.340;2023-04-03T12:14:51;7.50;1.00
8591;DHT22;4333;48.322;14.340;2023-04-03T12:17:26;7.40;1.00
8591;DHT22;4333;48.322;14.340;2023-04-03T12:19:53;7.50;1.00
8591;DHT22;4333;48.322;14.340;2023-04-03T12:22:20;7.60;1.00
8591;DHT22;4333;48.322;14.340;2023-04-03T12:24:51;7.70;1.00
8591;DHT22;4333;48.322;14.340;2023-04-03T12:27:34;7.90;1.00
8591;DHT22;4333;48.322;14.340;2023-04-03T12:30:22;8.00;1.00
8591;DHT22;4333;48.322;14.340;2023-04-03T12:41:44;8.50;1.00
8591;DHT22;4333;48.322;14.340;2023-04-03T12:44:34;8.20;1.00
8591;DHT22;4333;48.322;14.340;2023-04-03T12:47:36;8.10;1.00
8591;DHT22;4333;48.322;14.340;2023-04-03T12:50:04;8.00;1.00
8591;DHT22;4333;48.322;14.340;2023-04-03T12:55:00;7.70;1.00
8591;DHT22;4333;48.322;14.340;2023-04-03T12:57:30;7.50;1.00
8591;DHT22;4333;48.322;14.340;2023-04-03T12:59:56;7.90;1.00
8591;DHT22;4333;48.322;14.340;2023-04-03T13:02:31;8.10;1.00
8591;DHT22;4333;48.322;14.340;2023-04-03T13:05:06;8.30;1.00
8591;DHT22;4333;48.322;14.340;2023-04-03T13:07:34;8.40;1.00
8591;DHT22;4333;48.322;14.340;2023-04-03T13:12:35;9.00;1.00
8591;DHT22;4333;48.322;14.340;2023-04-03T13:15:46;8.80;1.00
8591;DHT22;4333;48.322;14.340;2023-04-03T13:18:30;8.40;1.00
8591;DHT22;4333;48.322;14.340;2023-04-03T13:21:17;8.30;1.00
8591;DHT22;4333;48.322;14.340;2023-04-03T13:23:47;8.20;1.00
8591;DHT22;4333;48.322;14.340;2023-04-03T13:26:17;7.90;1.00
8591;DHT22;4333;48.322;14.340;2023-04-03T13:28:49;7.90;1.00
8591;DHT22;4333;48.322;14.340;2023-04-03T13:31:23;7.80;1.00
8591;DHT22;4333;48.322;14.340;2023-04-03T13:36:57;7.60;1.00
8591;DHT22;4333;48.322;14.340;2023-04-03T13:39:28;7.80;1.00
8591;DHT22;4333;48.322;14.340;2023-04-03T13:42:14;7.70;1.00
8591;DHT22;4333;48.322;14.340;2023-04-03T13:44:40;7.70;1.00
8591;DHT22;4333;48.322;14.340;2023-04-03T13:49:44;7.50;1.00
8591;DHT22;4333;48.322;14.340;2023-04-03T13:52:38;7.40;1.00
8591;DHT22;4333;48.322;14.340;2023-04-03T13:55:33;7.30;1.00
8591;DHT22;4333;48.322;14.340;2023-04-03T13:58:16;7.50;1.00
8591;DHT22;4333;48.322;14.340;2023-04-03T14:06:15;8.60;1.00
8591;DHT22;4333;48.322;14.340;2023-04-03T14:08:42;8.40;1.00
8591;DHT22;4333;48.322;14.340;2023-04-03T14:11:21;8.10;1.00
8591;DHT22;4333;48.322;14.340;2023-04-03T14:13:49;7.80;1.00
8591;DHT22;4333;48.322;14.340;2023-04-03T14:16:19;7.40;1.00
8591;DHT22;4333;48.322;14.340;2023-04-03T14:18:46;7.20;1.00
8591;DHT22;4333;48.322;14.340;2023-04-03T14:21:14;7.00;1.00
8591;DHT22;4333;48.322;14.340;2023-04-03T14:23:40;6.80;1.00
8591;DHT22;4333;48.322;14.340;2023-04-03T14:26:24;6.80;1.00
8591;DHT22;4333;48.322;14.340;2023-04-03T14:28:53;7.00;1.00
8591;DHT22;4333;48.322;14.340;2023-04-03T14:31:23;7.10;1.00
8591;DHT22;4333;48.322;14.340;2023-04-03T14:33:49;7.30;1.00
8591;DHT22;4333;48.322;14.340;2023-04-03T14:36:18;7.10;1.00
8591;DHT22;4333;48.322;14.340;2023-04-03T14:38:48;7.10;1.00
8591;DHT22;4333;48.322;14.340;2023-04-03T14:41:16;6.80;1.00
8591;DHT22;4333;48.322;14.340;2023-04-03T14:43:44;6.90;1.00
8591;DHT22;4333;48.322;14.340;2023-04-03T14:46:35;7.10;1.00
8591;DHT22;4333;48.322;14.340;2023-04-03T14:49:01;7.30;1.00
8591;DHT22;4333;48.322;14.340;2023-04-03T14:51:27;7.60;1.00
8591;DHT22;4333;48.322;14.340;2023-04-03T14:53:53;7.80;1.00
8591;DHT22;4333;48.322;14.340;2023-04-03T14:56:28;8.00;1.00
8591;DHT22;4333;48.322;14.340;2023-04-03T14:59:01;8.10;1.00
8591;DHT22;4333;48.322;14.340;2023-04-03T15:01:28;8.10;1.00
8591;DHT22;4333;48.322;14.340;2023-04-03T15:03:54;7.60;1.00
8591;DHT22;4333;48.322;14.340;2023-04-03T15:06:20;7.30;1.00
8591;DHT22;4333;48.322;14.340;2023-04-03T15:08:47;7.30;1.00
8591;DHT22;4333;48.322;14.340;2023-04-03T15:11:14;7.20;1.00
8591;DHT22;4333;48.322;14.340;2023-04-03T15:13:40;6.90;1.00
8591;DHT22;4333;48.322;14.340;2023-04-03T15:16:14;6.80;1.00
8591;DHT22;4333;48.322;14.340;2023-04-03T15:18:43;6.80;1.00
8591;DHT22;4333;48.322;14.340;2023-04-03T15:21:09;7.00;1.00
8591;DHT22;4333;48.322;14.340;2023-04-03T15:23:35;7.30;1.00
8591;DHT22;4333;48.322;14.340;2023-04-03T15:26:01;7.50;1.00
8591;DHT22;4333;48.322;14.340;2023-04-03T15:28:34;7.60;1.00
8591;DHT22;4333;48.322;14.340;2023-04-03T15:31:04;7.60;1.00
8591;DHT22;4333;48.322;14.340;2023-04-03T15:33:31;7.70;1.00
8591;DHT22;4333;48.322;14.340;2023-04-03T15:35:57;7.70;1.00
8591;DHT22;4333;48.322;14.340;2023-04-03T15:38:25;7.80;1.00
8591;DHT22;4333;48.322;14.340;2023-04-03T15:40:54;7.80;1.00
8591;DHT22;4333;48.322;14.340;2023-04-03T15:43:23;7.60;1.00
8591;DHT22;4333;48.322;14.340;2023-04-03T15:45:49;7.70;1.00
8591;DHT22;4333;48.322;14.340;2023-04-03T15:48:18;7.60;1.00
8591;DHT22;4333;48.322;14.340;2023-04-03T15:50:47;7.40;1.00
8591;DHT22;4333;48.322;14.340;2023-04-03T15:53:13;7.30;1.00
8591;DHT22;4333;48.322;14.340;2023-04-03T15:55:41;7.10;1.00
8591;DHT22;4333;48.322;14.340;2023-04-03T15:58:07;7.10;1.00
8591;DHT22;4333;48.322;14.340;2023-04-03T16:00:33;7.00;1.00
8591;DHT22;4333;48.322;14.340;2023-04-03T16:03:06;6.90;1.00
8591;DHT22;4333;48.322;14.340;2023-04-03T16:05:37;6.80;1.00
8591;DHT22;4333;48.322;14.340;2023-04-03T16:08:04;6.60;1.00
8591;DHT22;4333;48.322;14.340;2023-04-03T16:10:33;6.50;1.00
8591;DHT22;4333;48.322;14.340;2023-04-03T16:12:59;6.40;1.00
8591;DHT22;4333;48.322;14.340;2023-04-03T16:15:26;6.20;1.00
8591;DHT22;4333;48.322;14.340;2023-04-03T16:18:05;6.00;1.00
8591;DHT22;4333;48.322;14.340;2023-04-03T16:20:31;5.90;1.00
8591;DHT22;4333;48.322;14.340;2023-04-03T16:22:58;5.90;1.00
8591;DHT22;4333;48.322;14.340;2023-04-03T16:25:25;5.90;1.00
8591;DHT22;4333;48.322;14.340;2023-04-03T16:27:52;5.80;1.00
8591;DHT22;4333;48.322;14.340;2023-04-03T16:30:18;5.70;1.00
8591;DHT22;4333;48.322;14.340;2023-04-03T16:32:43;5.70;1.00
8591;DHT22;4333;48.322;14.340;2023-04-03T16:35:10;5.60;1.00
8591;DHT22;4333;48.322;14.340;2023-04-03T16:37:37;5.50;1.00
8591;DHT22;4333;48.322;14.340;2023-04-03T16:40:05;5.40;1.00
8591;DHT22;4333;48.322;14.340;2023-04-03T16:42:35;5.20;1.00
8591;DHT22;4333;48.322;14.340;2023-04-03T16:45:03;5.10;1.00
8591;DHT22;4333;48.322;14.340;2023-04-03T16:47:29;5.10;1.00
8591;DHT22;4333;48.322;14.340;2023-04-03T16:49:58;5.00;1.00
8591;DHT22;4333;48.322;14.340;2023-04-03T16:52:23;4.90;1.00
8591;DHT22;4333;48.322;14.340;2023-04-03T16:54:49;5.00;1.00
8591;DHT22;4333;48.322;14.340;2023-04-03T16:57:17;4.80;1.00
8591;DHT22;4333;48.322;14.340;2023-04-03T16:59:42;4.80;1.00
8591;DHT22;4333;48.322;14.340;2023-04-03T17:02:08;4.70;1.00
8591;DHT22;4333;48.322;14.340;2023-04-03T17:04:36;4.60;1.00
8591;DHT22;4333;48.322;14.340;2023-04-03T17:07:01;4.60;1.00
8591;DHT22;4333;48.322;14.340;2023-04-03T17:09:32;4.50;1.00
8591;DHT22;4333;48.322;14.340;2023-04-03T17:12:03;4.40;1.00
8591;DHT22;4333;48.322;14.340;2023-04-03T17:14:30;4.40;1.00
8591;DHT22;4333;48.322;14.340;2023-04-03T17:17:01;4.30;1.00
8591;DHT22;4333;48.322;14.340;2023-04-03T17:19:30;4.30;1.00
8591;DHT22;4333;48.322;14.340;2023-04-03T17:25:28;4.20;1.00
8591;DHT22;4333;48.322;14.340;2023-04-03T17:27:54;4.20;1.00
8591;DHT22;4333;48.322;14.340;2023-04-03T17:30:23;4.20;1.00
8591;DHT22;4333;48.322;14.340;2023-04-03T17:32:49;4.10;1.00
8591;DHT22;4333;48.322;14.340;2023-04-03T17:35:17;3.90;1.00
8591;DHT22;4333;48.322;14.340;2023-04-03T17:37:48;4.00;1.00
8591;DHT22;4333;48.322;14.340;2023-04-03T17:40:15;3.90;1.00
8591;DHT22;4333;48.322;14.340;2023-04-03T17:42:42;3.90;1.00
8591;DHT22;4333;48.322;14.340;2023-04-03T17:45:08;4.00;1.00
8591;DHT22;4333;48.322;14.340;2023-04-03T17:47:37;3.90;1.00
8591;DHT22;4333;48.322;14.340;2023-04-03T17:50:03;4.00;1.00
8591;DHT22;4333;48.322;14.340;2023-04-03T17:52:28;3.80;1.00
8591;DHT22;4333;48.322;14.340;2023-04-03T17:54:56;3.70;1.00
8591;DHT22;4333;48.322;14.340;2023-04-03T17:57:22;3.60;1.00
8591;DHT22;4333;48.322;14.340;2023-04-03T17:59:47;3.50;1.00
8591;DHT22;4333;48.322;14.340;2023-04-03T18:02:13;3.40;1.00
8591;DHT22;4333;48.322;14.340;2023-04-03T18:04:39;3.20;1.00
8591;DHT22;4333;48.322;14.340;2023-04-03T18:07:05;3.00;1.00
8591;DHT22;4333;48.322;14.340;2023-04-03T18:09:34;2.90;1.00
8591;DHT22;4333;48.322;14.340;2023-04-03T18:12:04;2.90;1.00
8591;DHT22;4333;48.322;14.340;2023-04-03T18:14:33;2.80;1.00
8591;DHT22;4333;48.322;14.340;2023-04-03T18:16:59;2.70;1.00
8591;DHT22;4333;48.322;14.340;2023-04-03T18:19:28;2.60;1.00